Time;durP1;ratioP1;P1;durP2;ratioP2;P2;SDS_P1;SDS_P2;PMS_P1;PMS_P2;Temp;Humidity;BMP_temperature;BMP_pressure;BME280_temperature;BME280_humidity;BME280_pressure;Samples;Min_cycle;Max_cycle;Signal;HPM_P1;HPM_P2
2022/08/13 00:00:10;;;;;;;10.40;3.40;;;;;;;19.14;100.00;98634.41;5046171;28;20111;-90
2022/08/13 00:02:39;;;;;;;10.45;3.25;;;;;;;19.10;100.00;98636.34;5056333;28;20115;-89
2022/08/13 00:05:05;;;;;;;8.23;2.80;;;;;;;19.40;100.00;98639.34;5056328;28;20420;-90
2022/08/13 00:07:31;;;;;;;9.48;3.08;;;;;;;19.58;100.00;98639.38;5045354;28;20044;-90
2022/08/13 00:09:59;;;;;;;9.60;3.47;;;;;;;19.42;100.00;98623.41;5034896;28;20037;-90
2022/08/13 00:15:38;;;;;;;7.03;2.83;;;;;;;19.38;100.00;98627.97;5040280;28;20167;-90
2022/08/13 00:18:07;;;;;;;9.93;3.33;;;;;;;19.39;100.00;98628.84;5043388;28;20051;-89
2022/08/13 00:20:48;;;;;;;8.57;3.10;;;;;;;19.40;100.00;98628.78;5058966;28;20083;-90
2022/08/13 00:23:16;;;;;;;8.23;3.20;;;;;;;19.19;100.00;98624.47;5042314;28;20044;-90
2022/08/13 00:25:45;;;;;;;10.70;3.55;;;;;;;19.06;100.00;98617.09;5036256;28;20025;-89
2022/08/13 00:28:11;;;;;;;7.43;3.25;;;;;;;19.11;100.00;98622.19;5036511;28;20028;-89
2022/08/13 00:30:38;;;;;;;8.30;3.40;;;;;;;19.03;100.00;98619.91;5039261;28;20116;-89
2022/08/13 00:33:12;;;;;;;9.82;3.20;;;;;;;18.93;100.00;98615.97;5046894;28;20033;-90
2022/08/13 00:35:41;;;;;;;9.40;3.30;;;;;;;18.73;100.00;98611.53;5042172;28;20025;-90
2022/08/13 00:38:16;;;;;;;10.98;3.80;;;;;;;18.77;100.00;98608.72;5038515;28;20477;-91
2022/08/13 00:40:44;;;;;;;8.88;3.78;;;;;;;18.81;100.00;98606.78;5032389;28;20071;-91
2022/08/13 00:43:10;;;;;;;9.60;3.38;;;;;;;18.74;100.00;98602.69;5058024;28;20109;-91
2022/08/13 00:45:36;;;;;;;13.15;3.80;;;;;;;18.74;100.00;98607.97;5039603;28;20187;-89
2022/08/13 00:50:55;;;;;;;9.80;3.83;;;;;;;18.75;100.00;98607.06;5040370;28;20036;-89
2022/08/13 00:53:23;;;;;;;13.50;3.90;;;;;;;18.56;100.00;98607.00;5033638;28;20077;-89
2022/08/13 00:55:50;;;;;;;10.25;3.75;;;;;;;18.62;100.00;98611.16;5029348;28;20541;-90
2022/08/13 00:58:17;;;;;;;9.85;4.18;;;;;;;18.64;100.00;98612.81;5040966;28;20052;-89
2022/08/13 01:00:47;;;;;;;9.68;4.10;;;;;;;18.61;100.00;98599.75;5041892;28;20025;-90
2022/08/13 01:03:14;;;;;;;11.57;4.80;;;;;;;18.46;100.00;98603.06;5036384;28;20126;-90
2022/08/13 01:05:43;;;;;;;13.52;5.07;;;;;;;18.44;100.00;98595.22;5042826;28;20060;-89
2022/08/13 01:08:10;;;;;;;11.98;5.00;;;;;;;18.67;100.00;98601.25;5045806;28;20086;-91
2022/08/13 01:10:38;;;;;;;13.48;4.85;;;;;;;18.65;100.00;98598.69;5031968;28;20033;-89
2022/08/13 01:13:07;;;;;;;11.18;5.10;;;;;;;18.64;100.00;98596.97;5043244;28;20412;-89
2022/08/13 01:15:34;;;;;;;13.85;4.93;;;;;;;18.70;100.00;98595.84;5038066;28;20089;-90
2022/08/13 01:18:01;;;;;;;10.02;4.85;;;;;;;18.68;100.00;98608.25;5040332;28;20040;-90
2022/08/13 01:20:27;;;;;;;9.25;4.40;;;;;;;18.43;100.00;98602.28;5041746;28;20037;-90
2022/08/13 01:22:58;;;;;;;14.43;4.20;;;;;;;18.14;100.00;98602.69;5043531;28;20036;-91
2022/08/13 01:25:25;;;;;;;11.68;4.70;;;;;;;17.96;100.00;98599.88;5030972;28;20017;-92
2022/08/13 01:27:52;;;;;;;15.98;5.53;;;;;;;18.10;100.00;98598.44;5038513;28;20088;-92
2022/08/13 01:30:22;;;;;;;11.48;4.22;;;;;;;17.96;100.00;98599.88;5034740;28;20052;-92
2022/08/13 01:32:48;;;;;;;10.63;4.70;;;;;;;17.86;100.00;98596.72;5041381;28;20021;-92
2022/08/13 01:35:16;;;;;;;11.48;4.88;;;;;;;18.00;100.00;98604.09;5056199;28;20041;-91
2022/08/13 01:37:43;;;;;;;11.35;5.47;;;;;;;18.12;100.00;98593.94;5063247;28;20029;-92
2022/08/13 01:40:10;;;;;;;13.05;5.70;;;;;;;18.14;100.00;98594.75;5043831;28;20024;-91
2022/08/13 01:42:43;;;;;;;11.10;5.47;;;;;;;18.27;100.00;98593.28;5042049;28;20029;-92
2022/08/13 01:45:10;;;;;;;;;;;;;;;18.10;100.00;98601.94;5045785;28;20049;-90
2022/08/13 01:50:30;;;;;;;14.60;6.13;;;;;;;17.89;100.00;98598.38;5051981;28;20076;-92
2022/08/13 01:53:00;;;;;;;13.38;6.15;;;;;;;17.80;100.00;98593.47;5044443;28;20094;-93
2022/08/13 01:55:42;;;;;;;11.93;5.65;;;;;;;17.67;100.00;98593.97;5040372;28;20052;-93
2022/08/13 01:58:19;;;;;;;11.93;5.45;;;;;;;17.68;100.00;98593.06;5041478;28;20472;-92
2022/08/13 02:00:49;;;;;;;13.10;5.20;;;;;;;17.51;100.00;98595.53;5040801;28;20044;-91
2022/08/13 02:03:17;;;;;;;14.52;6.28;;;;;;;17.69;100.00;98597.44;5036589;28;20037;-91
2022/08/13 02:05:43;;;;;;;13.43;6.75;;;;;;;17.69;100.00;98596.56;5042707;28;20021;-92
2022/08/13 02:08:11;;;;;;;14.55;6.57;;;;;;;17.79;100.00;98589.16;5045014;28;20036;-93
2022/08/13 02:10:40;;;;;;;20.30;6.25;;;;;;;17.77;100.00;98593.63;5035269;28;20095;-94
2022/08/13 02:13:09;;;;;;;13.90;5.70;;;;;;;17.72;100.00;98592.03;5032757;28;20112;-92
2022/08/13 02:15:42;;;;;;;16.63;6.80;;;;;;;17.53;100.00;98586.63;5044449;28;20036;-92
2022/08/13 02:18:16;;;;;;;13.18;6.60;;;;;;;17.62;100.00;98592.47;5043533;28;20047;-93
2022/08/13 02:20:44;;;;;;;16.33;6.70;;;;;;;17.51;100.00;98593.75;5047548;28;20036;-92
2022/08/13 02:23:10;;;;;;;16.27;6.57;;;;;;;17.37;100.00;98590.81;5042144;28;20043;-93
2022/08/13 02:25:41;;;;;;;14.10;6.38;;;;;;;17.28;100.00;98592.03;5040971;28;20024;-92
2022/08/13 02:28:10;;;;;;;16.08;7.00;;;;;;;17.26;100.00;98593.00;5042128;28;20158;-91
2022/08/13 02:30:36;;;;;;;17.17;6.95;;;;;;;17.37;100.00;98586.41;5041696;28;20025;-90
2022/08/13 02:33:03;;;;;;;15.23;7.18;;;;;;;17.14;100.00;98589.91;5035450;28;20032;-92
2022/08/13 02:35:29;;;;;;;14.70;7.60;;;;;;;17.37;100.00;98591.66;5041494;28;20105;-91
2022/08/13 02:37:55;;;;;;;14.45;6.47;;;;;;;17.31;100.00;98589.25;5037848;28;20037;-93
2022/08/13 02:43:07;;;;;;;18.20;7.07;;;;;;;17.31;100.00;98589.25;5041123;28;20035;-92
2022/08/13 02:45:36;;;;;;;15.48;6.57;;;;;;;17.22;100.00;98584.38;5042584;28;20033;-94
2022/08/13 02:48:02;;;;;;;14.88;6.72;;;;;;;17.15;100.00;98583.75;5041133;28;20025;-92
2022/08/13 02:50:27;;;;;;;15.10;6.93;;;;;;;17.23;100.00;98581.66;5043548;28;20036;-90
2022/08/13 02:52:54;;;;;;;15.60;7.03;;;;;;;17.11;100.00;98589.19;5043333;28;20426;-91
2022/08/13 02:55:22;;;;;;;13.73;7.15;;;;;;;17.15;100.00;98585.53;5037916;28;20041;-92
2022/08/13 02:57:49;;;;;;;13.10;7.03;;;;;;;17.14;100.00;98584.66;5035577;28;20033;-93
2022/08/13 03:00:17;;;;;;;15.88;6.30;;;;;;;17.05;100.00;98585.03;5042039;28;20029;-91
2022/08/13 03:02:44;;;;;;;14.95;6.95;;;;;;;17.06;100.00;98584.97;5039534;28;20036;-91
2022/08/13 03:05:15;;;;;;;15.15;6.80;;;;;;;17.19;100.00;98581.84;5035788;28;20043;-92
2022/08/13 03:07:46;;;;;;;16.17;8.68;;;;;;;17.25;100.00;98572.84;5039885;28;20561;-93
2022/08/13 03:10:14;;;;;;;13.65;6.70;;;;;;;17.12;100.00;98578.59;5041218;28;20540;-92
2022/08/13 03:12:45;;;;;;;14.07;7.10;;;;;;;16.96;100.00;98575.69;5044503;28;20090;-92
2022/08/13 03:15:13;;;;;;;14.73;6.80;;;;;;;16.78;100.00;98574.56;5044403;28;20040;-93
2022/08/13 03:17:42;;;;;;;12.98;6.63;;;;;;;16.84;100.00;98568.19;5038514;28;20120;-92
2022/08/13 03:20:16;;;;;;;15.38;7.53;;;;;;;16.82;100.00;98576.16;5044929;28;20020;-93
2022/08/13 03:22:53;;;;;;;15.93;7.13;;;;;;;16.86;100.00;98574.28;5038084;28;20071;-90
2022/08/13 03:25:21;;;;;;;17.90;8.32;;;;;;;16.97;100.00;98571.28;5034384;28;20050;-92
2022/08/13 03:27:48;;;;;;;17.13;8.20;;;;;;;17.06;100.00;98571.78;5044860;28;20096;-91
2022/08/13 03:30:19;;;;;;;17.38;8.88;;;;;;;16.92;100.00;98568.81;5043822;28;20040;-92
2022/08/13 03:32:46;;;;;;;17.60;8.30;;;;;;;16.93;100.00;98567.03;5039982;28;20040;-91
2022/08/13 03:35:15;;;;;;;21.55;9.13;;;;;;;16.89;100.00;98569.78;5038391;28;20035;-92
2022/08/13 03:37:43;;;;;;;17.15;8.55;;;;;;;16.73;100.00;98569.47;5037180;28;20041;-92
2022/08/13 03:40:11;;;;;;;19.30;8.63;;;;;;;16.69;100.00;98567.03;5044935;28;20032;-93
2022/08/13 03:42:37;;;;;;;17.45;9.25;;;;;;;16.86;100.00;98559.31;5048059;28;20086;-93
2022/08/13 03:45:03;;;;;;;19.27;9.93;;;;;;;16.84;100.00;98566.44;5044989;28;20060;-92
2022/08/13 03:47:30;;;;;;;22.58;10.48;;;;;;;16.87;100.00;98565.47;5063189;28;20027;-95
2022/08/13 03:49:59;;;;;;;18.88;9.98;;;;;;;16.94;100.00;98552.94;5066381;28;20069;-93
2022/08/13 03:52:25;;;;;;;18.58;9.35;;;;;;;16.58;100.00;98556.88;5053954;28;20148;-92
2022/08/13 03:54:51;;;;;;;16.33;8.73;;;;;;;16.55;100.00;98559.63;5048036;28;20045;-91
2022/08/13 03:57:19;;;;;;;18.73;10.00;;;;;;;16.68;100.00;98560.88;5060626;28;20020;-93
2022/08/13 03:59:48;;;;;;;19.95;10.18;;;;;;;16.70;100.00;98563.44;5068653;28;20045;-93
2022/08/13 04:02:15;;;;;;;18.27;9.32;;;;;;;16.71;100.00;98559.91;5057671;28;20024;-93
2022/08/13 04:04:50;;;;;;;20.05;9.40;;;;;;;17.46;100.00;98557.94;5045646;28;20025;-93
2022/08/13 04:07:20;;;;;;;17.90;9.10;;;;;;;17.44;100.00;98542.19;5048459;28;20040;-93
2022/08/13 04:09:46;;;;;;;21.45;9.95;;;;;;;17.55;100.00;98549.66;5043490;28;20064;-92
2022/08/13 04:12:13;;;;;;;17.98;8.73;;;;;;;17.54;100.00;98551.44;5047679;28;20400;-91
2022/08/13 04:14:40;;;;;;;16.55;8.63;;;;;;;17.66;100.00;98551.84;5043878;28;20119;-91
2022/08/13 04:17:10;;;;;;;19.80;9.27;;;;;;;17.72;100.00;98556.91;5058753;28;20036;-92
2022/08/13 04:19:39;;;;;;;18.17;9.02;;;;;;;17.70;100.00;98548.16;5034074;28;20079;-93
2022/08/13 04:22:06;;;;;;;16.00;8.50;;;;;;;17.72;100.00;98547.19;5044761;28;20038;-92
2022/08/13 04:24:33;;;;;;;18.98;10.02;;;;;;;17.70;100.00;98538.50;5046030;28;20029;-92
2022/08/13 04:26:59;;;;;;;19.67;10.38;;;;;;;17.61;100.00;98551.22;5035427;28;20028;-93
2022/08/13 04:29:25;;;;;;;20.25;10.23;;;;;;;17.64;100.00;98548.44;5043057;28;20052;-91
2022/08/13 04:31:51;;;;;;;22.27;11.27;;;;;;;17.64;100.00;98545.81;5061198;28;20035;-93
2022/08/13 04:34:25;;;;;;;19.65;9.25;;;;;;;17.61;100.00;98536.22;5046172;28;21630;-91
2022/08/13 04:36:51;;;;;;;19.88;9.85;;;;;;;17.65;100.00;98542.25;5040516;28;20618;-91
2022/08/13 04:39:19;;;;;;;17.77;9.77;;;;;;;17.64;100.00;98545.81;5044970;28;20454;-91
2022/08/13 04:41:45;;;;;;;19.88;11.05;;;;;;;17.65;100.00;98543.09;5041181;28;20111;-91
2022/08/13 04:44:11;;;;;;;17.23;9.35;;;;;;;17.51;100.00;98542.81;5033716;28;20140;-93
2022/08/13 04:46:37;;;;;;;19.45;10.00;;;;;;;17.50;100.00;98538.47;5032469;28;20033;-93
2022/08/13 04:49:03;;;;;;;18.90;9.45;;;;;;;17.62;100.00;98539.72;5047604;28;20021;-92
2022/08/13 04:51:31;;;;;;;25.02;10.57;;;;;;;17.86;100.00;98535.22;5043806;28;20378;-92
2022/08/13 04:53:57;;;;;;;21.52;9.90;;;;;;;17.71;100.00;98534.91;5043205;28;20215;-93
2022/08/13 04:56:22;;;;;;;22.15;9.63;;;;;;;17.67;100.00;98535.97;5041382;28;20855;-92
2022/08/13 04:58:48;;;;;;;22.05;11.32;;;;;;;17.82;100.00;98545.03;5046819;28;20079;-92
2022/08/13 05:01:13;;;;;;;22.83;12.20;;;;;;;17.83;100.00;98540.59;5041206;28;20572;-92
2022/08/13 05:03:47;;;;;;;21.63;11.10;;;;;;;17.73;100.00;98534.84;5044259;28;20811;-93
2022/08/13 05:06:19;;;;;;;23.02;11.82;;;;;;;17.54;100.00;98540.03;5044445;28;20759;-93
2022/08/13 05:08:52;;;;;;;21.38;10.88;;;;;;;17.62;100.00;98543.22;5045522;28;20397;-92
2022/08/13 05:11:19;;;;;;;20.50;10.32;;;;;;;17.58;100.00;98539.00;5043743;28;20043;-91
2022/08/13 05:13:45;;;;;;;24.90;11.52;;;;;;;17.63;100.00;98546.72;5043913;28;20760;-92
2022/08/13 05:16:16;;;;;;;24.35;11.85;;;;;;;17.69;100.00;98536.78;5047098;28;20112;-92
2022/08/13 05:18:45;;;;;;;23.38;11.50;;;;;;;17.81;100.00;98534.53;5041048;28;20125;-92
2022/08/13 05:21:12;;;;;;;25.15;12.40;;;;;;;17.70;100.00;98543.78;5037150;28;20048;-93
2022/08/13 05:23:39;;;;;;;21.15;11.60;;;;;;;17.54;100.00;98551.44;5055569;28;20037;-91
2022/08/13 05:26:06;;;;;;;22.17;10.60;;;;;;;17.54;100.00;98540.03;5036505;28;20388;-94
2022/08/13 05:28:33;;;;;;;20.65;10.50;;;;;;;17.74;100.00;98541.84;5039638;28;20144;-90
2022/08/13 05:30:59;;;;;;;24.83;12.02;;;;;;;18.07;100.00;98549.28;5038496;28;20036;-91
2022/08/13 05:33:27;;;;;;;33.72;11.07;;;;;;;18.23;100.00;98536.28;5038592;28;20346;-91
2022/08/13 05:35:59;;;;;;;22.85;10.70;;;;;;;18.18;100.00;98546.19;5044054;28;20025;-91
2022/08/13 05:38:27;;;;;;;23.98;11.38;;;;;;;18.16;100.00;98555.94;5042184;28;20039;-91
2022/08/13 05:40:56;;;;;;;23.27;10.65;;;;;;;17.91;100.00;98549.06;5045002;28;20129;-91
2022/08/13 05:43:29;;;;;;;24.02;11.07;;;;;;;17.96;100.00;98557.66;5039398;28;20866;-95
2022/08/13 05:45:58;;;;;;;25.52;11.23;;;;;;;17.48;100.00;98561.38;5038208;28;20042;-93
2022/08/13 05:48:37;;;;;;;22.55;10.48;;;;;;;17.49;100.00;98568.38;5039913;28;20036;-93
2022/08/13 05:51:07;;;;;;;23.15;10.60;;;;;;;17.39;100.00;98574.00;5042893;28;20098;-90
2022/08/13 05:53:33;;;;;;;21.00;10.48;;;;;;;17.56;100.00;98572.47;5042346;28;20035;-89
2022/08/13 05:55:59;;;;;;;22.70;11.02;;;;;;;17.62;100.00;98572.25;5046270;28;20033;-89
2022/08/13 05:58:26;;;;;;;21.52;10.68;;;;;;;17.78;100.00;98561.06;5048234;28;20549;-90
2022/08/13 06:03:37;;;;;;;22.40;10.48;;;;;;;17.85;100.00;98566.00;5059581;28;20044;-91
2022/08/13 06:06:09;;;;;;;21.70;10.93;;;;;;;17.78;100.00;98571.59;5047645;28;20116;-91
2022/08/13 06:09:10;;;;;;;20.20;10.77;;;;;;;17.83;100.00;98561.69;5043653;28;20021;-91
2022/08/13 06:11:40;;;;;;;20.38;10.20;;;;;;;18.04;100.00;98568.75;5035035;28;20037;-91
2022/08/13 06:14:05;;;;;;;20.38;10.77;;;;;;;17.91;100.00;98549.94;5061792;28;20036;-91
2022/08/13 06:16:32;;;;;;;24.65;11.35;;;;;;;18.20;100.00;98554.91;5060728;28;20041;-91
2022/08/13 06:18:59;;;;;;;24.98;10.27;;;;;;;17.96;100.00;98565.56;5051070;28;20083;-92
2022/08/13 06:21:26;;;;;;;21.80;11.20;;;;;;;17.82;100.00;98563.50;5046029;28;20037;-90
2022/08/13 06:23:52;;;;;;;20.20;10.93;;;;;;;17.80;100.00;98570.63;5045676;28;20254;-90
2022/08/13 06:26:19;;;;;;;21.05;10.77;;;;;;;18.07;100.00;98565.13;5033130;28;20578;-92
2022/08/13 06:28:46;;;;;;;22.23;11.50;;;;;;;18.04;100.00;98565.25;5044175;28;20064;-89
2022/08/13 06:31:16;;;;;;;21.08;11.77;;;;;;;17.97;100.00;98564.66;5040761;28;20025;-90
2022/08/13 06:33:44;;;;;;;21.42;11.05;;;;;;;18.08;100.00;98564.22;5038500;28;20033;-89
2022/08/13 06:36:13;;;;;;;24.40;11.93;;;;;;;18.14;100.00;98563.09;5044205;28;20041;-90
2022/08/13 06:38:48;;;;;;;22.80;11.23;;;;;;;18.18;100.00;98564.69;5034257;28;20404;-91
2022/08/13 06:41:15;;;;;;;21.10;11.15;;;;;;;18.12;100.00;98562.28;5042767;28;20025;-91
2022/08/13 06:43:44;;;;;;;20.83;10.93;;;;;;;18.35;100.00;98556.00;5037333;28;20029;-91
2022/08/13 06:46:12;;;;;;;22.13;10.13;;;;;;;18.26;100.00;98562.56;5033173;28;20147;-89
2022/08/13 06:48:42;;;;;;;22.33;11.00;;;;;;;18.63;100.00;98552.13;5044018;28;20611;-91
2022/08/13 06:51:10;;;;;;;23.55;10.95;;;;;;;18.47;100.00;98555.47;5038341;28;20111;-92
2022/08/13 06:53:39;;;;;;;20.70;9.95;;;;;;;18.42;100.00;98554.81;5050983;28;20028;-90
2022/08/13 06:56:07;;;;;;;22.58;9.82;;;;;;;18.60;100.00;98551.34;5039855;28;20311;-90
2022/08/13 06:58:35;;;;;;;19.50;9.80;;;;;;;18.73;100.00;98549.00;5046158;28;20044;-91
2022/08/13 07:01:01;;;;;;;18.67;9.30;;;;;;;18.90;100.00;98548.25;5046763;28;20029;-90
2022/08/13 07:03:28;;;;;;;21.30;10.35;;;;;;;18.64;100.00;98553.84;5038335;28;20052;-89
2022/08/13 07:05:58;;;;;;;19.10;10.65;;;;;;;18.72;100.00;98549.09;5043338;28;20426;-91
2022/08/13 07:08:30;;;;;;;20.63;10.40;;;;;;;18.59;100.00;98551.41;5038692;28;20025;-90
2022/08/13 07:13:49;;;;;;;20.15;9.60;;;;;;;19.18;100.00;98540.81;5041743;28;20114;-90
2022/08/13 07:16:16;;;;;;;19.60;9.57;;;;;;;19.07;100.00;98547.47;5052893;28;20022;-89
2022/08/13 07:18:43;;;;;;;18.27;9.38;;;;;;;18.96;100.00;98544.47;5039294;28;20053;-92
2022/08/13 07:21:11;;;;;;;21.15;9.10;;;;;;;19.03;100.00;98534.47;5048124;28;20048;-91
2022/08/13 07:23:39;;;;;;;18.38;8.52;;;;;;;19.16;100.00;98532.09;5044069;28;20434;-91
2022/08/13 07:26:12;;;;;;;19.98;8.52;;;;;;;19.10;100.00;98544.66;5043983;28;20044;-93
2022/08/13 07:28:40;;;;;;;18.27;7.82;;;;;;;19.26;100.00;98536.88;5045402;28;20592;-92
2022/08/13 07:31:07;;;;;;;15.52;7.60;;;;;;;19.30;100.00;98537.56;5045494;28;20755;-91
2022/08/13 07:33:39;;;;;;;17.50;7.00;;;;;;;19.21;100.00;98538.03;5052372;28;20033;-91
2022/08/13 07:36:08;;;;;;;19.30;8.45;;;;;;;19.17;100.00;98541.75;5037436;28;20409;-91
2022/08/13 07:38:36;;;;;;;19.42;8.27;;;;;;;19.24;100.00;98543.16;5043759;28;20036;-92
2022/08/13 07:41:03;;;;;;;16.40;8.30;;;;;;;19.59;100.00;98537.94;5042998;28;20029;-92
2022/08/13 07:43:39;;;;;;;15.93;7.72;;;;;;;19.62;100.00;98537.78;5044926;28;20126;-91
2022/08/13 07:46:15;;;;;;;17.13;7.88;;;;;;;19.23;100.00;98539.69;5062523;28;20032;-94
2022/08/13 07:48:51;;;;;;;18.25;7.70;;;;;;;19.71;100.00;98549.72;5045279;28;20079;-90
2022/08/13 07:51:21;;;;;;;16.55;8.32;;;;;;;19.55;100.00;98542.50;5042788;28;20025;-93
2022/08/13 07:53:51;;;;;;;17.90;8.15;;;;;;;19.76;100.00;98540.63;5043002;28;20063;-91
2022/08/13 07:56:28;;;;;;;17.58;8.18;;;;;;;19.71;100.00;98545.28;5049354;28;20120;-91
2022/08/13 07:59:18;;;;;;;18.27;7.93;;;;;;;19.83;100.00;98542.97;5047101;28;20028;-92
2022/08/13 08:01:45;;;;;;;18.48;7.38;;;;;;;20.09;100.00;98542.50;5041608;28;20028;-91
2022/08/13 08:04:13;;;;;;;18.90;8.02;;;;;;;19.97;100.00;98539.63;5046827;28;20025;-91
2022/08/13 08:06:45;;;;;;;20.90;9.27;;;;;;;19.99;100.00;98541.25;5047108;28;20040;-90
2022/08/13 08:09:22;;;;;;;20.48;7.65;;;;;;;20.32;100.00;98532.53;5041135;28;20145;-93
2022/08/13 08:14:43;;;;;;;15.02;6.97;;;;;;;20.41;100.00;98541.75;5060296;28;20106;-92
2022/08/13 08:17:10;;;;;;;17.13;7.07;;;;;;;20.96;100.00;98528.22;5077984;28;20029;-92
2022/08/13 08:19:39;;;;;;;15.65;6.55;;;;;;;20.60;100.00;98528.41;5054861;28;20024;-92
2022/08/13 08:22:07;;;;;;;20.35;8.10;;;;;;;20.70;100.00;98536.75;5046396;28;20025;-91
2022/08/13 08:24:34;;;;;;;14.88;6.45;;;;;;;20.98;100.00;98528.97;5051593;28;20147;-92
2022/08/13 08:27:04;;;;;;;14.63;6.07;;;;;;;21.06;100.00;98531.19;5047305;28;20087;-91
2022/08/13 08:29:31;;;;;;;12.23;5.53;;;;;;;20.88;100.00;98533.06;5046961;28;20040;-93
2022/08/13 08:32:01;;;;;;;13.35;5.95;;;;;;;21.01;100.00;98527.94;5039216;28;20048;-92
2022/08/13 08:34:28;;;;;;;14.13;5.97;;;;;;;21.56;100.00;98515.16;5048917;28;20025;-93
2022/08/13 08:36:55;;;;;;;13.75;5.72;;;;;;;21.68;100.00;98519.75;5042823;28;20548;-94
2022/08/13 08:45:08;;;;;;;11.02;4.75;;;;;;;22.39;100.00;98520.03;5049907;28;20028;-94
2022/08/13 08:47:37;;;;;;;12.75;5.78;;;;;;;21.70;100.00;98517.88;5045233;28;20029;-93
2022/08/13 08:50:05;;;;;;;13.50;5.15;;;;;;;21.74;100.00;98523.84;5051276;28;20824;-94
2022/08/13 08:55:18;;;;;;;16.48;5.28;;;;;;;22.35;100.00;98532.63;5044226;28;20056;-92
2022/08/13 08:57:44;;;;;;;12.63;5.38;;;;;;;22.89;100.00;98528.44;5045143;28;20037;-93
2022/08/13 09:00:18;;;;;;;13.25;5.13;;;;;;;22.39;100.00;98525.34;5046526;28;20037;-93
2022/08/13 09:02:56;;;;;;;14.82;5.28;;;;;;;22.18;100.00;98530.97;5049278;28;20107;-94
2022/08/13 09:05:25;;;;;;;13.45;5.70;;;;;;;22.32;100.00;98524.81;5039936;28;20029;-93
2022/08/13 09:07:52;;;;;;;13.52;5.32;;;;;;;22.68;100.00;98534.16;5043663;28;20037;-92
2022/08/13 09:10:21;;;;;;;14.43;4.97;;;;;;;22.88;100.00;98534.72;5048100;28;20035;-92
2022/08/13 09:12:49;;;;;;;10.70;3.97;;;;;;;22.81;100.00;98532.47;5056721;28;20037;-92
2022/08/13 09:15:21;;;;;;;10.93;4.32;;;;;;;23.02;100.00;98535.56;5046738;28;20079;-92
2022/08/13 09:17:47;;;;;;;13.80;4.30;;;;;;;22.86;100.00;98523.34;5047265;28;20036;-91
2022/08/13 09:20:22;;;;;;;11.27;3.67;;;;;;;23.26;100.00;98526.97;5052099;28;20036;-94
2022/08/13 09:23:04;;;;;;;9.93;3.80;;;;;;;23.28;100.00;98530.38;5030899;28;20033;-92
2022/08/13 09:25:30;;;;;;;8.98;3.40;;;;;;;23.64;100.00;98530.72;5034734;28;20021;-94
2022/08/13 09:27:57;;;;;;;9.98;3.60;;;;;;;23.80;100.00;98526.09;5048027;28;20108;-92
2022/08/13 09:30:23;;;;;;;8.45;3.40;;;;;;;23.73;100.00;98522.16;5049692;28;20055;-93
2022/08/13 09:32:53;;;;;;;8.93;3.85;;;;;;;23.23;100.00;98521.88;5041729;28;20091;-90
2022/08/13 09:35:18;;;;;;;9.10;4.07;;;;;;;23.26;100.00;98520.81;5045547;28;20037;-92
2022/08/13 09:37:45;;;;;;;9.35;4.18;;;;;;;23.47;100.00;98522.06;5046571;28;20037;-92
2022/08/13 09:40:14;;;;;;;10.02;3.92;;;;;;;23.70;100.00;98522.31;5047680;28;20041;-92
2022/08/13 09:42:50;;;;;;;11.55;4.47;;;;;;;24.36;100.00;98517.84;5049656;28;20057;-92
2022/08/13 09:45:17;;;;;;;9.90;3.83;;;;;;;24.24;100.00;98525.84;5049659;28;20047;-92
2022/08/13 09:47:43;;;;;;;10.73;4.10;;;;;;;24.37;100.00;98524.06;5042064;28;20051;-92
2022/08/13 09:50:10;;;;;;;14.15;4.00;;;;;;;23.93;100.00;98519.97;5040410;28;20634;-92
2022/08/13 09:52:36;;;;;;;10.57;3.80;;;;;;;23.43;100.00;98528.53;5042190;28;20385;-91
2022/08/13 09:55:04;;;;;;;11.90;4.55;;;;;;;24.13;100.00;98519.44;5037210;28;20046;-90
2022/08/13 09:57:30;;;;;;;10.65;3.92;;;;;;;24.43;100.00;98523.63;5043571;28;20377;-91
2022/08/13 09:59:55;;;;;;;9.68;3.97;;;;;;;24.64;100.00;98528.44;5047102;28;20028;-92
2022/08/13 10:02:21;;;;;;;9.98;3.60;;;;;;;24.67;100.00;98514.88;5045901;28;20064;-92
2022/08/13 10:04:56;;;;;;;7.93;3.60;;;;;;;24.48;100.00;98520.63;5050548;28;20044;-91
2022/08/13 10:07:22;;;;;;;10.75;4.20;;;;;;;24.80;100.00;98518.38;5049660;28;20051;-91
2022/08/13 10:09:51;;;;;;;8.05;3.55;;;;;;;24.73;100.00;98514.44;5050223;28;20476;-91
2022/08/13 10:12:18;;;;;;;9.68;3.53;;;;;;;24.79;100.00;98503.34;5049955;28;20533;-91
2022/08/13 10:14:44;;;;;;;10.93;3.95;;;;;;;24.70;100.00;98507.53;5049413;28;20067;-91
2022/08/13 10:17:12;;;;;;;10.10;4.28;;;;;;;25.31;100.00;98492.50;5047945;28;20044;-92
2022/08/13 10:19:38;;;;;;;14.10;3.70;;;;;;;25.47;100.00;98498.44;5048964;28;20069;-91
2022/08/13 10:22:04;;;;;;;9.95;3.90;;;;;;;26.06;100.00;98496.69;5043781;28;20029;-91
2022/08/13 10:24:30;;;;;;;9.43;3.88;;;;;;;28.00;100.00;98500.78;5041189;28;20498;-91
2022/08/13 10:26:58;;;;;;;9.85;3.85;;;;;;;28.24;100.00;98508.53;5049759;28;20060;-91
2022/08/13 10:29:24;;;;;;;9.10;3.50;;;;;;;28.66;100.00;98510.31;5068910;28;20113;-91
2022/08/13 10:31:49;;;;;;;10.00;3.55;;;;;;;28.75;100.00;98504.16;5054396;28;20116;-94
2022/08/13 10:34:15;;;;;;;11.10;3.80;;;;;;;28.24;100.00;98506.72;5056405;28;20032;-93
2022/08/13 10:36:42;;;;;;;8.52;3.55;;;;;;;29.22;100.00;98504.41;5048611;28;20489;-93
2022/08/13 10:39:09;;;;;;;10.13;3.30;;;;;;;28.49;100.00;98503.72;5068004;28;20041;-93
2022/08/13 10:41:35;;;;;;;9.15;3.20;;;;;;;27.70;100.00;98497.03;5065012;28;20017;-94
2022/08/13 10:44:01;;;;;;;8.32;2.92;;;;;;;28.17;100.00;98500.19;5046370;28;20089;-93
2022/08/13 10:46:33;;;;;;;10.07;3.45;;;;;;;28.03;100.00;98497.81;5053148;28;20032;-94
2022/08/13 10:48:59;;;;;;;9.00;3.22;;;;;;;28.06;100.00;98484.19;5054811;28;20032;-94
2022/08/13 10:51:29;;;;;;;8.23;3.33;;;;;;;27.77;100.00;98490.16;5046932;28;20040;-95
2022/08/13 10:53:55;;;;;;;9.40;3.22;;;;;;;27.66;100.00;98484.88;5056455;28;20056;-94
2022/08/13 10:56:28;;;;;;;10.55;3.25;;;;;;;27.52;100.00;98483.34;5054199;28;20040;-95
2022/08/13 10:59:00;;;;;;;8.07;3.08;;;;;;;28.30;100.00;98485.72;5052582;28;20036;-95
2022/08/13 11:01:27;;;;;;;9.27;3.42;;;;;;;27.80;100.00;98481.03;5072378;28;20028;-93
2022/08/13 11:07:50;;;;;;;7.57;3.00;;;;;;;27.82;100.00;98471.88;5078343;28;20059;-96
2022/08/13 11:10:26;;;;;;;8.57;3.00;;;;;;;28.61;100.00;98470.47;5071386;28;20059;-96
2022/08/13 11:12:52;;;;;;;7.95;3.35;;;;;;;28.29;100.00;98460.72;5068967;28;20021;-96
2022/08/13 11:15:56;;;;;;;7.43;3.00;;;;;;;29.10;99.57;98468.78;5057651;28;20051;-96
2022/08/13 11:18:22;;;;;;;7.63;2.70;;;;;;;28.97;93.12;98462.81;5065590;28;20084;-93
2022/08/13 11:21:11;;;;;;;7.47;2.60;;;;;;;29.41;94.60;98457.97;5059082;28;20050;-96
2022/08/13 11:23:43;;;;;;;7.00;2.70;;;;;;;29.31;96.75;98456.25;5005813;28;20077;-88
2022/08/13 11:26:10;;;;;;;7.43;2.80;;;;;;;29.32;90.55;98457.94;5006327;28;20034;-88
2022/08/13 11:28:35;;;;;;;7.95;2.72;;;;;;;29.66;86.69;98449.44;5003421;28;20030;-88
2022/08/13 11:31:01;;;;;;;7.63;2.65;;;;;;;29.55;87.70;98450.44;5006034;28;20076;-87
2022/08/13 11:33:26;;;;;;;10.00;2.60;;;;;;;29.32;87.12;98449.91;5002786;28;21294;-88
2022/08/13 11:35:52;;;;;;;7.88;2.47;;;;;;;29.41;82.22;98454.41;5015678;28;20026;-87
2022/08/13 11:38:21;;;;;;;9.57;3.10;;;;;;;28.94;84.18;98455.88;5000326;28;21077;-87
2022/08/13 11:40:55;;;;;;;7.50;3.00;;;;;;;28.48;88.60;98454.59;5020411;28;20509;-88
2022/08/13 11:43:28;;;;;;;8.38;3.20;;;;;;;28.75;88.82;98461.22;5018923;28;20091;-88
2022/08/13 11:45:54;;;;;;;7.75;3.40;;;;;;;28.43;94.03;98446.97;5002389;28;20034;-88
2022/08/13 11:48:21;;;;;;;7.00;2.88;;;;;;;28.71;86.73;98452.59;4997990;28;20048;-88
2022/08/13 11:50:47;;;;;;;8.25;2.80;;;;;;;29.69;88.15;98441.97;4996571;28;20054;-87
2022/08/13 11:53:13;;;;;;;7.75;3.25;;;;;;;29.06;90.35;98437.84;4994852;28;20049;-88
2022/08/13 11:55:39;;;;;;;9.80;3.45;;;;;;;29.31;90.42;98440.97;5004319;28;20041;-88